Rivercat — WDA9209 — position and weather

sailwx.info

Track history (hours):
 
Tides and Currents Weather Stations Pressure Air Temp Water Temp Dewpoint Dewpoint Depression Visibility Wind Speed Wind Dir Waves Ship Positions

Rivercat

Owner: TAURUS MARINE, SAN FRANCISCO, CA. More information available from US FCC via Universal Licensing System and Coast Guard Vessel Documentation Center.

Last reported at 2018-Jun-21 19:13 UTC. Time now 2018-Jun-21 19:56 UTC.
Position N 37°46' W 122°23'.

Length 20 m; draft 2 m.

Type: Tug. MMSI: 366862670.

Date/timePositionNaut miles runAvg speedWind from/ knotsBaromVisibWave heightAir tempDewpointWater temp
2018-Jun-21 19:13N 37°46' W 122°23'0 0.5
2018-Jun-21 19:00N 37°47' W 122°23'0 0.0
2018-Jun-21 18:30N 37°47' W 122°23'0 0.2
2018-Jun-21 18:01N 37°46' W 122°23'0 0.1
2018-Jun-21 17:30N 37°46' W 122°23'0 0.0
2018-Jun-21 17:00N 37°46' W 122°23'0 0.3
2018-Jun-21 16:30N 37°47' W 122°23'0 0.3
2018-Jun-21 16:00N 37°46' W 122°23'0 0.0
2018-Jun-21 15:30N 37°46' W 122°23'0 0.0
2018-Jun-21 15:00N 37°46' W 122°23'0 0.2
2018-Jun-21 14:30N 37°46' W 122°23'0 0.0
2018-Jun-20 20:07N 37°46' W 122°23'0 2.4
2018-Jun-20 20:00N 37°47' W 122°23'2 4.9
2018-Jun-20 19:30N 37°49' W 122°21'0 0.0
2018-Jun-20 19:00N 37°49' W 122°21'0 0.0
2018-Jun-20 18:30N 37°49' W 122°21'0 0.0
2018-Jun-20 18:00N 37°49' W 122°21'0 0.0
2018-Jun-20 17:30N 37°49' W 122°21'0 0.0
2018-Jun-20 17:00N 37°49' W 122°21'0 0.0
2018-Jun-20 16:30N 37°49' W 122°21'0 0.0
2018-Jun-20 15:57N 37°49' W 122°21'0 0.0
2018-Jun-20 15:30N 37°49' W 122°21'0 0.0
2018-Jun-20 15:00N 37°49' W 122°21'0 0.0
2018-Jun-20 14:30N 37°49' W 122°21'0 0.1
2018-Jun-20 14:00N 37°49' W 122°21'0 0.0
2018-Jun-20 13:30N 37°49' W 122°21'2 3.8
2018-Jun-20 13:00N 37°47' W 122°22'1 0.0
2018-Jun-19 19:34N 37°46' W 122°23'0 0.0
2018-Jun-19 19:31N 37°46' W 122°23'0 0.0
2018-Jun-19 19:00N 37°46' W 122°23'0 0.0
2018-Jun-19 18:30N 37°46' W 122°23'0 0.0
2018-Jun-19 18:01N 37°46' W 122°23'0 0.0
2018-Jun-19 17:31N 37°46' W 122°23'0 0.0
2018-Jun-19 17:00N 37°46' W 122°23'0 0.0
2018-Jun-19 16:30N 37°46' W 122°23'2 4.0
2018-Jun-19 16:00N 37°45' W 122°22'2 3.8
2018-Jun-19 15:30N 37°46' W 122°21'2 4.1
2018-Jun-19 15:00N 37°48' W 122°21'1 2.3
2018-Jun-19 14:30N 37°50' W 122°21'1 2.3
2018-Jun-19 14:00N 37°49' W 122°20'0 0.0
2018-Jun-19 13:30N 37°49' W 122°20'0 0.1
2018-Jun-19 13:00N 37°49' W 122°20'0 0.1
2018-Jun-19 12:31N 37°49' W 122°20'0 0.0
2018-Jun-19 12:00N 37°49' W 122°20'1 2.3
2018-Jun-19 11:30N 37°50' W 122°21'1 1.9
2018-Jun-19 11:01N 37°49' W 122°20'1 1.4
2018-Jun-19 10:30N 37°49' W 122°21'3 0.2
2018-Jun-18 17:11N 37°46' W 122°23'0 0.0
2018-Jun-18 07:48N 37°46' W 122°23'1 3.4
2018-Jun-18 07:30N 37°46' W 122°22'1 2.7
2018-Jun-18 07:00N 37°46' W 122°20'0 0.0
2018-Jun-18 06:30N 37°46' W 122°20'0 0.0
2018-Jun-18 06:00N 37°46' W 122°20'0 0.4
2018-Jun-18 05:30N 37°46' W 122°20'0 0.2
2018-Jun-18 05:01N 37°46' W 122°20'0 0.1
2018-Jun-18 04:30N 37°46' W 122°20'0 0.1
2018-Jun-18 04:00N 37°46' W 122°21'0 0.1
2018-Jun-18 03:30N 37°46' W 122°20'0 0.0
2018-Jun-18 03:00N 37°46' W 122°20'1 1.1
2018-Jun-18 02:30N 37°47' W 122°21'2 3.4
2018-Jun-18 02:00N 37°46' W 122°23'0 0.0
2018-Jun-18 01:30N 37°46' W 122°23'0 0.0
2018-Jun-18 01:00N 37°46' W 122°23'0 0.0
2018-Jun-18 00:30N 37°46' W 122°23'0 0.2
2018-Jun-18 00:00N 37°47' W 122°23'4 7.2
2018-Jun-17 23:30N 37°50' W 122°23'3 6.8
2018-Jun-17 23:00N 37°53' W 122°24'2 5.0
2018-Jun-17 22:30N 37°55' W 122°22'0 0.4
2018-Jun-17 22:00N 37°55' W 122°22'0 0.0
2018-Jun-17 21:30N 37°55' W 122°22'0 0.0
2018-Jun-17 20:57N 37°55' W 122°22'0 0.0
2018-Jun-17 20:30N 37°55' W 122°22'0 0.0
2018-Jun-17 20:00N 37°55' W 122°22'0 0.0
2018-Jun-17 19:30N 37°55' W 122°22'0 0.0
2018-Jun-17 19:00N 37°55' W 122°22'0 0.0
2018-Jun-17 18:30N 37°55' W 122°22'0 0.0
2018-Jun-17 18:00N 37°55' W 122°22'0 0.0
2018-Jun-17 17:25N 37°55' W 122°22'0 0.0
2018-Jun-17 17:00N 37°55' W 122°22'0 0.0
2018-Jun-17 16:30N 37°55' W 122°22'0 0.0
2018-Jun-17 16:00N 37°55' W 122°22'0 0.1
2018-Jun-17 15:30N 37°55' W 122°22'1 2.3
2018-Jun-17 15:00N 37°54' W 122°23'3 5.8
2018-Jun-17 14:30N 37°51' W 122°24'510.0
2018-Jun-17 14:00N 37°47' W 122°23'0 0.0
2018-Jun-17 00:25N 37°46' W 122°23'1 3.1
2018-Jun-17 00:00N 37°46' W 122°22'0 0.4
2018-Jun-16 23:30N 37°46' W 122°21'0 0.3
2018-Jun-16 23:00N 37°46' W 122°21'0 0.2
2018-Jun-16 22:30N 37°46' W 122°21'0 0.1
2018-Jun-16 22:01N 37°46' W 122°21'0 0.1
2018-Jun-16 21:30N 37°46' W 122°21'0 0.1
2018-Jun-16 21:00N 37°46' W 122°21'0 0.0
2018-Jun-16 20:30N 37°46' W 122°21'0 0.1
2018-Jun-16 20:00N 37°46' W 122°21'0 0.0
2018-Jun-16 19:30N 37°46' W 122°21'0 0.0
2018-Jun-16 19:00N 37°46' W 122°21'0 0.1
2018-Jun-16 18:30N 37°46' W 122°21'0 0.1
2018-Jun-16 18:00N 37°46' W 122°21'0 0.2
2018-Jun-16 17:30N 37°46' W 122°22'0 0.4
2018-Jun-16 17:00N 37°46' W 122°22'0 0.1
2018-Jun-16 16:30N 37°46' W 122°22'0 0.1
2018-Jun-16 16:00N 37°46' W 122°22'0 0.0
2018-Jun-16 15:30N 37°46' W 122°22'1 1.7
2018-Jun-16 15:00N 37°47' W 122°23'0 0.9
2018-Jun-16 14:30N 37°46' W 122°23'0 0.0
2018-Jun-16 01:31N 37°46' W 122°23'0 0.0
2018-Jun-16 01:30N 37°46' W 122°23'3 5.4
2018-Jun-16 01:00N 37°44' W 122°21'0 0.0
2018-Jun-16 00:31N 37°44' W 122°21'0 0.1
2018-Jun-16 00:00N 37°44' W 122°21'0 0.1
2018-Jun-15 23:30N 37°44' W 122°21'0 0.0
2018-Jun-15 23:01N 37°44' W 122°21'0 0.2
2018-Jun-15 22:30N 37°44' W 122°21'0 0.2
2018-Jun-15 22:00N 37°44' W 122°21'0 0.1
2018-Jun-15 21:30N 37°44' W 122°21'0 0.0
2018-Jun-15 21:00N 37°44' W 122°21'0 0.1
2018-Jun-15 20:30N 37°44' W 122°21'0 0.0
2018-Jun-15 20:00N 37°44' W 122°21'1 1.2
2018-Jun-15 19:31N 37°45' W 122°21'2 4.7
2018-Jun-15 19:01N 37°46' W 122°23'0 0.1
2018-Jun-15 18:30N 37°46' W 122°23'0 0.0
2018-Jun-15 16:58N 37°46' W 122°23'4 7.8
2018-Jun-15 16:31N 37°50' W 122°22'2 3.1
2018-Jun-15 16:00N 37°49' W 122°21'0 0.3
2018-Jun-15 15:29N 37°49' W 122°21'0 0.0
2018-Jun-15 15:00N 37°49' W 122°21'0 0.0
2018-Jun-15 14:30N 37°49' W 122°21'0 0.0
2018-Jun-15 14:01N 37°49' W 122°21'0 0.0
2018-Jun-15 13:28N 37°49' W 122°21'1 2.5
2018-Jun-15 13:01N 37°48' W 122°22'2 0.2
2018-Jun-15 04:30N 37°46' W 122°23'2 4.0
2018-Jun-15 04:01N 37°46' W 122°21'0 0.0
2018-Jun-15 03:30N 37°46' W 122°21'0 0.1
2018-Jun-15 03:00N 37°46' W 122°21'0 0.1
2018-Jun-15 02:30N 37°46' W 122°21'0 0.2
2018-Jun-15 02:00N 37°46' W 122°21'0 0.0
2018-Jun-15 01:30N 37°46' W 122°21'0 0.0
2018-Jun-15 01:00N 37°46' W 122°21'0 0.0
2018-Jun-15 00:30N 37°46' W 122°21'0 0.0
2018-Jun-15 00:00N 37°46' W 122°21'0 0.0
2018-Jun-14 23:30N 37°46' W 122°21'0 0.1
2018-Jun-14 23:01N 37°46' W 122°21'0 0.0
2018-Jun-14 22:30N 37°46' W 122°21'0 0.2
2018-Jun-14 22:00N 37°46' W 122°21'2 4.0
2018-Jun-14 21:30N 37°46' W 122°23'0 0.0
2018-Jun-14 21:00N 37°46' W 122°23'0 0.0
2018-Jun-14 20:30N 37°46' W 122°23'0 0.7
2018-Jun-14 20:00N 37°47' W 122°23'3 6.9
2018-Jun-14 19:30N 37°49' W 122°20'0 0.0
2018-Jun-14 19:00N 37°49' W 122°20'0 0.1
2018-Jun-14 18:30N 37°49' W 122°20'1 2.2
2018-Jun-14 18:00N 37°50' W 122°21'3 6.3
2018-Jun-14 17:30N 37°47' W 122°23'1 0.0
2018-Jun-13 23:12N 37°46' W 122°23'1 7.2
2018-Jun-13 23:00N 37°48' W 122°22'2 3.2
2018-Jun-13 22:30N 37°49' W 122°21'0 0.7
2018-Jun-13 22:00N 37°49' W 122°21'3 5.8
2018-Jun-13 21:30N 37°46' W 122°22'1 2.9
2018-Jun-13 21:00N 37°45' W 122°22'0 0.0
2018-Jun-13 20:30N 37°45' W 122°22'0 0.0
2018-Jun-13 20:00N 37°45' W 122°22'0 0.0
2018-Jun-13 19:30N 37°45' W 122°22'0 0.1
2018-Jun-13 19:00N 37°45' W 122°22'3 6.1
2018-Jun-13 18:30N 37°48' W 122°22'2 4.2
2018-Jun-13 18:00N 37°49' W 122°20'1 1.3
2018-Jun-13 17:30N 37°49' W 122°19'1 1.6
2018-Jun-13 17:00N 37°49' W 122°19'0 0.0
2018-Jun-13 16:30N 37°49' W 122°19'2 4.4
2018-Jun-13 16:00N 37°50' W 122°21'2 3.0
2018-Jun-13 15:30N 37°49' W 122°23'2 3.0
2018-Jun-13 15:00N 37°48' W 122°23'0 0.0
2018-Jun-13 14:30N 37°48' W 122°23'0 0.0
2018-Jun-13 14:00N 37°48' W 122°23'1 2.7
2018-Jun-13 13:30N 37°49' W 122°23'2 3.1
2018-Jun-13 13:00N 37°50' W 122°21'4 7.5
2018-Jun-13 12:30N 37°46' W 122°23'0 0.0
2018-Jun-13 12:00N 37°46' W 122°23'0 0.0
2018-Jun-13 11:30N 37°46' W 122°23'0 0.0
2018-Jun-13 11:00N 37°46' W 122°23'0 0.0
2018-Jun-13 10:30N 37°46' W 122°23'0 0.0
2018-Jun-13 10:00N 37°46' W 122°23'0 0.0
2018-Jun-13 09:29N 37°46' W 122°23'0 0.0
2018-Jun-13 09:00N 37°46' W 122°23'0 0.0
2018-Jun-13 08:30N 37°46' W 122°23'0 0.0
2018-Jun-13 08:00N 37°46' W 122°23'0 0.0
2018-Jun-13 07:30N 37°46' W 122°23'0 0.0
2018-Jun-13 07:00N 37°46' W 122°23'0 0.0
2018-Jun-13 06:30N 37°46' W 122°23'0 0.0
2018-Jun-13 06:00N 37°46' W 122°23'0 0.0
2018-Jun-13 05:30N 37°46' W 122°23'0 0.0
2018-Jun-13 05:00N 37°46' W 122°23'0 0.0
2018-Jun-13 04:30N 37°46' W 122°23'0 0.0
2018-Jun-13 03:59N 37°46' W 122°23'0 0.0
2018-Jun-13 03:30N 37°46' W 122°23'0 0.0
2018-Jun-13 03:00N 37°46' W 122°23'0 0.0
2018-Jun-13 02:30N 37°46' W 122°23'0 0.0
2018-Jun-13 02:00N 37°46' W 122°23'0 0.0
2018-Jun-13 01:29N 37°46' W 122°23'0 0.0
2018-Jun-13 01:00N 37°46' W 122°23'0 0.0
2018-Jun-13 00:30N 37°46' W 122°23'0 0.0
2018-Jun-13 00:00N 37°46' W 122°23'3 7.0
2018-Jun-12 23:30N 37°49' W 122°20'1 1.1
2018-Jun-12 23:00N 37°49' W 122°19'3 6.0
2018-Jun-12 22:30N 37°47' W 122°21'2 4.1
2018-Jun-12 22:00N 37°45' W 122°22'0 0.1
2018-Jun-12 21:30N 37°45' W 122°22'2 3.5
2018-Jun-12 21:00N 37°46' W 122°22'2 5.0
2018-Jun-12 20:30N 37°49' W 122°21'1 1.3
2018-Jun-12 20:00N 37°49' W 122°20'2 3.5
2018-Jun-12 19:30N 37°48' W 122°21'3 6.5
2018-Jun-12 19:00N 37°45' W 122°22'2 4.3
2018-Jun-12 18:30N 37°47' W 122°21'3 5.5
2018-Jun-12 18:00N 37°49' W 122°20'0 0.0
2018-Jun-12 17:30N 37°49' W 122°20'0 0.1
2018-Jun-12 17:00N 37°49' W 122°20'0 0.9
2018-Jun-12 16:30N 37°49' W 122°20'1 2.2
2018-Jun-12 16:00N 37°49' W 122°19'0 0.0
2018-Jun-12 15:30N 37°49' W 122°19'0 0.0
2018-Jun-12 15:00N 37°49' W 122°19'0 0.0
2018-Jun-12 14:30N 37°49' W 122°19'0 0.2
2018-Jun-12 14:00N 37°49' W 122°19'4 8.1
2018-Jun-12 13:30N 37°47' W 122°23'0 0.1
2018-Jun-12 08:29N 37°46' W 122°23'1 2.8
2018-Jun-12 08:00N 37°46' W 122°22'2 4.2
2018-Jun-12 07:30N 37°44' W 122°20'0 0.3
2018-Jun-12 07:00N 37°44' W 122°20'0 0.3
2018-Jun-12 06:30N 37°44' W 122°20'0 0.0
2018-Jun-12 06:00N 37°44' W 122°20'0 0.0
2018-Jun-12 05:30N 37°44' W 122°20'1 2.1
2018-Jun-12 05:01N 37°45' W 122°20'0 0.0
2018-Jun-12 04:30N 37°45' W 122°20'0 0.1
2018-Jun-12 04:00N 37°45' W 122°20'0 0.0
2018-Jun-12 03:31N 37°45' W 122°20'0 0.0
2018-Jun-12 03:01N 37°45' W 122°20'0 0.1
2018-Jun-12 02:30N 37°45' W 122°20'0 0.0
2018-Jun-12 02:00N 37°45' W 122°20'0 0.0
2018-Jun-12 01:31N 37°45' W 122°20'0 0.2
2018-Jun-12 01:01N 37°45' W 122°20'1 1.8
2018-Jun-12 00:31N 37°45' W 122°21'2 4.2
2018-Jun-12 00:00N 37°46' W 122°23'0 0.0
2018-Jun-11 21:55N 37°46' W 122°23'0 0.0
2018-Jun-11 19:42N 37°46' W 122°23'0 2.2
2018-Jun-11 19:30N 37°47' W 122°23'  
Track history (hours):
 
Tides and Currents Weather Stations Pressure Air Temp Water Temp Dewpoint Dewpoint Depression Visibility Wind Speed Wind Dir Waves Ship Positions

Rivercat

Owner: TAURUS MARINE, SAN FRANCISCO, CA. More information available from US FCC via Universal Licensing System and Coast Guard Vessel Documentation Center.

Last reported at 2018-Jun-21 19:13 UTC. Time now 2018-Jun-21 19:56 UTC.
Position N 37°46' W 122°23'.

Length 20 m; draft 2 m.

Type: Tug. MMSI: 366862670.

Date/timePositionNaut miles runAvg speedWind from/ knotsBaromVisibWave heightAir tempDewpointWater temp
2018-Jun-21 19:13N 37°46' W 122°23'0 0.5
2018-Jun-21 19:00N 37°47' W 122°23'0 0.0
2018-Jun-21 18:30N 37°47' W 122°23'0 0.2
2018-Jun-21 18:01N 37°46' W 122°23'0 0.1
2018-Jun-21 17:30N 37°46' W 122°23'0 0.0
2018-Jun-21 17:00N 37°46' W 122°23'0 0.3
2018-Jun-21 16:30N 37°47' W 122°23'0 0.3
2018-Jun-21 16:00N 37°46' W 122°23'0 0.0
2018-Jun-21 15:30N 37°46' W 122°23'0 0.0
2018-Jun-21 15:00N 37°46' W 122°23'0 0.2
2018-Jun-21 14:30N 37°46' W 122°23'0 0.0
2018-Jun-20 20:07N 37°46' W 122°23'0 2.4
2018-Jun-20 20:00N 37°47' W 122°23'2 4.9
2018-Jun-20 19:30N 37°49' W 122°21'0 0.0
2018-Jun-20 19:00N 37°49' W 122°21'0 0.0
2018-Jun-20 18:30N 37°49' W 122°21'0 0.0
2018-Jun-20 18:00N 37°49' W 122°21'0 0.0
2018-Jun-20 17:30N 37°49' W 122°21'0 0.0
2018-Jun-20 17:00N 37°49' W 122°21'0 0.0
2018-Jun-20 16:30N 37°49' W 122°21'0 0.0
2018-Jun-20 15:57N 37°49' W 122°21'0 0.0
2018-Jun-20 15:30N 37°49' W 122°21'0 0.0
2018-Jun-20 15:00N 37°49' W 122°21'0 0.0
2018-Jun-20 14:30N 37°49' W 122°21'0 0.1
2018-Jun-20 14:00N 37°49' W 122°21'0 0.0
2018-Jun-20 13:30N 37°49' W 122°21'2 3.8
2018-Jun-20 13:00N 37°47' W 122°22'1 0.0
2018-Jun-19 19:34N 37°46' W 122°23'0 0.0
2018-Jun-19 19:31N 37°46' W 122°23'0 0.0
2018-Jun-19 19:00N 37°46' W 122°23'0 0.0
2018-Jun-19 18:30N 37°46' W 122°23'0 0.0
2018-Jun-19 18:01N 37°46' W 122°23'0 0.0
2018-Jun-19 17:31N 37°46' W 122°23'0 0.0
2018-Jun-19 17:00N 37°46' W 122°23'0 0.0
2018-Jun-19 16:30N 37°46' W 122°23'2 4.0
2018-Jun-19 16:00N 37°45' W 122°22'2 3.8
2018-Jun-19 15:30N 37°46' W 122°21'2 4.1
2018-Jun-19 15:00N 37°48' W 122°21'1 2.3
2018-Jun-19 14:30N 37°50' W 122°21'1 2.3
2018-Jun-19 14:00N 37°49' W 122°20'0 0.0
2018-Jun-19 13:30N 37°49' W 122°20'0 0.1
2018-Jun-19 13:00N 37°49' W 122°20'0 0.1
2018-Jun-19 12:31N 37°49' W 122°20'0 0.0
2018-Jun-19 12:00N 37°49' W 122°20'1 2.3
2018-Jun-19 11:30N 37°50' W 122°21'1 1.9
2018-Jun-19 11:01N 37°49' W 122°20'1 1.4
2018-Jun-19 10:30N 37°49' W 122°21'3 0.2
2018-Jun-18 17:11N 37°46' W 122°23'0 0.0
2018-Jun-18 07:48N 37°46' W 122°23'1 3.4
2018-Jun-18 07:30N 37°46' W 122°22'1 2.7
2018-Jun-18 07:00N 37°46' W 122°20'0 0.0
2018-Jun-18 06:30N 37°46' W 122°20'0 0.0
2018-Jun-18 06:00N 37°46' W 122°20'0 0.4
2018-Jun-18 05:30N 37°46' W 122°20'0 0.2
2018-Jun-18 05:01N 37°46' W 122°20'0 0.1
2018-Jun-18 04:30N 37°46' W 122°20'0 0.1
2018-Jun-18 04:00N 37°46' W 122°21'0 0.1
2018-Jun-18 03:30N 37°46' W 122°20'0 0.0
2018-Jun-18 03:00N 37°46' W 122°20'1 1.1
2018-Jun-18 02:30N 37°47' W 122°21'2 3.4
2018-Jun-18 02:00N 37°46' W 122°23'0 0.0
2018-Jun-18 01:30N 37°46' W 122°23'0 0.0
2018-Jun-18 01:00N 37°46' W 122°23'0 0.0
2018-Jun-18 00:30N 37°46' W 122°23'0 0.2
2018-Jun-18 00:00N 37°47' W 122°23'4 7.2
2018-Jun-17 23:30N 37°50' W 122°23'3 6.8
2018-Jun-17 23:00N 37°53' W 122°24'2 5.0
2018-Jun-17 22:30N 37°55' W 122°22'0 0.4
2018-Jun-17 22:00N 37°55' W 122°22'0 0.0
2018-Jun-17 21:30N 37°55' W 122°22'0 0.0
2018-Jun-17 20:57N 37°55' W 122°22'0 0.0
2018-Jun-17 20:30N 37°55' W 122°22'0 0.0
2018-Jun-17 20:00N 37°55' W 122°22'0 0.0
2018-Jun-17 19:30N 37°55' W 122°22'0 0.0
2018-Jun-17 19:00N 37°55' W 122°22'0 0.0
2018-Jun-17 18:30N 37°55' W 122°22'0 0.0
2018-Jun-17 18:00N 37°55' W 122°22'0 0.0
2018-Jun-17 17:25N 37°55' W 122°22'0 0.0
2018-Jun-17 17:00N 37°55' W 122°22'0 0.0
2018-Jun-17 16:30N 37°55' W 122°22'0 0.0
2018-Jun-17 16:00N 37°55' W 122°22'0 0.1
2018-Jun-17 15:30N 37°55' W 122°22'1 2.3
2018-Jun-17 15:00N 37°54' W 122°23'3 5.8
2018-Jun-17 14:30N 37°51' W 122°24'510.0
2018-Jun-17 14:00N 37°47' W 122°23'0 0.0
2018-Jun-17 00:25N 37°46' W 122°23'1 3.1
2018-Jun-17 00:00N 37°46' W 122°22'0 0.4
2018-Jun-16 23:30N 37°46' W 122°21'0 0.3
2018-Jun-16 23:00N 37°46' W 122°21'0 0.2
2018-Jun-16 22:30N 37°46' W 122°21'0 0.1
2018-Jun-16 22:01N 37°46' W 122°21'0 0.1
2018-Jun-16 21:30N 37°46' W 122°21'0 0.1
2018-Jun-16 21:00N 37°46' W 122°21'0 0.0
2018-Jun-16 20:30N 37°46' W 122°21'0 0.1
2018-Jun-16 20:00N 37°46' W 122°21'0 0.0
2018-Jun-16 19:30N 37°46' W 122°21'0 0.0
2018-Jun-16 19:00N 37°46' W 122°21'0 0.1
2018-Jun-16 18:30N 37°46' W 122°21'0 0.1
2018-Jun-16 18:00N 37°46' W 122°21'0 0.2
2018-Jun-16 17:30N 37°46' W 122°22'0 0.4
2018-Jun-16 17:00N 37°46' W 122°22'0 0.1
2018-Jun-16 16:30N 37°46' W 122°22'0 0.1
2018-Jun-16 16:00N 37°46' W 122°22'0 0.0
2018-Jun-16 15:30N 37°46' W 122°22'1 1.7
2018-Jun-16 15:00N 37°47' W 122°23'0 0.9
2018-Jun-16 14:30N 37°46' W 122°23'0 0.0
2018-Jun-16 01:31N 37°46' W 122°23'0 0.0
2018-Jun-16 01:30N 37°46' W 122°23'3 5.4
2018-Jun-16 01:00N 37°44' W 122°21'0 0.0
2018-Jun-16 00:31N 37°44' W 122°21'0 0.1
2018-Jun-16 00:00N 37°44' W 122°21'0 0.1
2018-Jun-15 23:30N 37°44' W 122°21'0 0.0
2018-Jun-15 23:01N 37°44' W 122°21'0 0.2
2018-Jun-15 22:30N 37°44' W 122°21'0 0.2
2018-Jun-15 22:00N 37°44' W 122°21'0 0.1
2018-Jun-15 21:30N 37°44' W 122°21'0 0.0
2018-Jun-15 21:00N 37°44' W 122°21'0 0.1
2018-Jun-15 20:30N 37°44' W 122°21'0 0.0
2018-Jun-15 20:00N 37°44' W 122°21'1 1.2
2018-Jun-15 19:31N 37°45' W 122°21'2 4.7
2018-Jun-15 19:01N 37°46' W 122°23'0 0.1
2018-Jun-15 18:30N 37°46' W 122°23'0 0.0
2018-Jun-15 16:58N 37°46' W 122°23'4 7.8
2018-Jun-15 16:31N 37°50' W 122°22'2 3.1
2018-Jun-15 16:00N 37°49' W 122°21'0 0.3
2018-Jun-15 15:29N 37°49' W 122°21'0 0.0
2018-Jun-15 15:00N 37°49' W 122°21'0 0.0
2018-Jun-15 14:30N 37°49' W 122°21'0 0.0
2018-Jun-15 14:01N 37°49' W 122°21'0 0.0
2018-Jun-15 13:28N 37°49' W 122°21'1 2.5
2018-Jun-15 13:01N 37°48' W 122°22'2 0.2
2018-Jun-15 04:30N 37°46' W 122°23'2 4.0
2018-Jun-15 04:01N 37°46' W 122°21'0 0.0
2018-Jun-15 03:30N 37°46' W 122°21'0 0.1
2018-Jun-15 03:00N 37°46' W 122°21'0 0.1
2018-Jun-15 02:30N 37°46' W 122°21'0 0.2
2018-Jun-15 02:00N 37°46' W 122°21'0 0.0
2018-Jun-15 01:30N 37°46' W 122°21'0 0.0
2018-Jun-15 01:00N 37°46' W 122°21'0 0.0
2018-Jun-15 00:30N 37°46' W 122°21'0 0.0
2018-Jun-15 00:00N 37°46' W 122°21'0 0.0
2018-Jun-14 23:30N 37°46' W 122°21'0 0.1
2018-Jun-14 23:01N 37°46' W 122°21'0 0.0
2018-Jun-14 22:30N 37°46' W 122°21'0 0.2
2018-Jun-14 22:00N 37°46' W 122°21'2 4.0
2018-Jun-14 21:30N 37°46' W 122°23'0 0.0
2018-Jun-14 21:00N 37°46' W 122°23'0 0.0
2018-Jun-14 20:30N 37°46' W 122°23'0 0.7
2018-Jun-14 20:00N 37°47' W 122°23'3 6.9
2018-Jun-14 19:30N 37°49' W 122°20'0 0.0
2018-Jun-14 19:00N 37°49' W 122°20'0 0.1
2018-Jun-14 18:30N 37°49' W 122°20'1 2.2
2018-Jun-14 18:00N 37°50' W 122°21'3 6.3
2018-Jun-14 17:30N 37°47' W 122°23'1 0.0
2018-Jun-13 23:12N 37°46' W 122°23'1 7.2
2018-Jun-13 23:00N 37°48' W 122°22'2 3.2
2018-Jun-13 22:30N 37°49' W 122°21'0 0.7
2018-Jun-13 22:00N 37°49' W 122°21'3 5.8
2018-Jun-13 21:30N 37°46' W 122°22'1 2.9
2018-Jun-13 21:00N 37°45' W 122°22'0 0.0
2018-Jun-13 20:30N 37°45' W 122°22'0 0.0
2018-Jun-13 20:00N 37°45' W 122°22'0 0.0
2018-Jun-13 19:30N 37°45' W 122°22'0 0.1
2018-Jun-13 19:00N 37°45' W 122°22'3 6.1
2018-Jun-13 18:30N 37°48' W 122°22'2 4.2
2018-Jun-13 18:00N 37°49' W 122°20'1 1.3
2018-Jun-13 17:30N 37°49' W 122°19'1 1.6
2018-Jun-13 17:00N 37°49' W 122°19'0 0.0
2018-Jun-13 16:30N 37°49' W 122°19'2 4.4
2018-Jun-13 16:00N 37°50' W 122°21'2 3.0
2018-Jun-13 15:30N 37°49' W 122°23'2 3.0
2018-Jun-13 15:00N 37°48' W 122°23'0 0.0
2018-Jun-13 14:30N 37°48' W 122°23'0 0.0
2018-Jun-13 14:00N 37°48' W 122°23'1 2.7
2018-Jun-13 13:30N 37°49' W 122°23'2 3.1
2018-Jun-13 13:00N 37°50' W 122°21'4 7.5
2018-Jun-13 12:30N 37°46' W 122°23'0 0.0
2018-Jun-13 12:00N 37°46' W 122°23'0 0.0
2018-Jun-13 11:30N 37°46' W 122°23'0 0.0
2018-Jun-13 11:00N 37°46' W 122°23'0 0.0
2018-Jun-13 10:30N 37°46' W 122°23'0 0.0
2018-Jun-13 10:00N 37°46' W 122°23'0 0.0
2018-Jun-13 09:29N 37°46' W 122°23'0 0.0
2018-Jun-13 09:00N 37°46' W 122°23'0 0.0
2018-Jun-13 08:30N 37°46' W 122°23'0 0.0
2018-Jun-13 08:00N 37°46' W 122°23'0 0.0
2018-Jun-13 07:30N 37°46' W 122°23'0 0.0
2018-Jun-13 07:00N 37°46' W 122°23'0 0.0
2018-Jun-13 06:30N 37°46' W 122°23'0 0.0
2018-Jun-13 06:00N 37°46' W 122°23'0 0.0
2018-Jun-13 05:30N 37°46' W 122°23'0 0.0
2018-Jun-13 05:00N 37°46' W 122°23'0 0.0
2018-Jun-13 04:30N 37°46' W 122°23'0 0.0
2018-Jun-13 03:59N 37°46' W 122°23'0 0.0
2018-Jun-13 03:30N 37°46' W 122°23'0 0.0
2018-Jun-13 03:00N 37°46' W 122°23'0 0.0
2018-Jun-13 02:30N 37°46' W 122°23'0 0.0
2018-Jun-13 02:00N 37°46' W 122°23'0 0.0
2018-Jun-13 01:29N 37°46' W 122°23'0 0.0
2018-Jun-13 01:00N 37°46' W 122°23'0 0.0
2018-Jun-13 00:30N 37°46' W 122°23'0 0.0
2018-Jun-13 00:00N 37°46' W 122°23'3 7.0
2018-Jun-12 23:30N 37°49' W 122°20'1 1.1
2018-Jun-12 23:00N 37°49' W 122°19'3 6.0
2018-Jun-12 22:30N 37°47' W 122°21'2 4.1
2018-Jun-12 22:00N 37°45' W 122°22'0 0.1
2018-Jun-12 21:30N 37°45' W 122°22'2 3.5
2018-Jun-12 21:00N 37°46' W 122°22'2 5.0
2018-Jun-12 20:30N 37°49' W 122°21'1 1.3
2018-Jun-12 20:00N 37°49' W 122°20'2 3.5
2018-Jun-12 19:30N 37°48' W 122°21'3 6.5
2018-Jun-12 19:00N 37°45' W 122°22'2 4.3
2018-Jun-12 18:30N 37°47' W 122°21'3 5.5
2018-Jun-12 18:00N 37°49' W 122°20'0 0.0
2018-Jun-12 17:30N 37°49' W 122°20'0 0.1
2018-Jun-12 17:00N 37°49' W 122°20'0 0.9
2018-Jun-12 16:30N 37°49' W 122°20'1 2.2
2018-Jun-12 16:00N 37°49' W 122°19'0 0.0
2018-Jun-12 15:30N 37°49' W 122°19'0 0.0
2018-Jun-12 15:00N 37°49' W 122°19'0 0.0
2018-Jun-12 14:30N 37°49' W 122°19'0 0.2
2018-Jun-12 14:00N 37°49' W 122°19'4 8.1
2018-Jun-12 13:30N 37°47' W 122°23'0 0.1
2018-Jun-12 08:29N 37°46' W 122°23'1 2.8
2018-Jun-12 08:00N 37°46' W 122°22'2 4.2
2018-Jun-12 07:30N 37°44' W 122°20'0 0.3
2018-Jun-12 07:00N 37°44' W 122°20'0 0.3
2018-Jun-12 06:30N 37°44' W 122°20'0 0.0
2018-Jun-12 06:00N 37°44' W 122°20'0 0.0
2018-Jun-12 05:30N 37°44' W 122°20'1 2.1
2018-Jun-12 05:01N 37°45' W 122°20'0 0.0
2018-Jun-12 04:30N 37°45' W 122°20'0 0.1
2018-Jun-12 04:00N 37°45' W 122°20'0 0.0
2018-Jun-12 03:31N 37°45' W 122°20'0 0.0
2018-Jun-12 03:01N 37°45' W 122°20'0 0.1
2018-Jun-12 02:30N 37°45' W 122°20'0 0.0
2018-Jun-12 02:00N 37°45' W 122°20'0 0.0
2018-Jun-12 01:31N 37°45' W 122°20'0 0.2
2018-Jun-12 01:01N 37°45' W 122°20'1 1.8
2018-Jun-12 00:31N 37°45' W 122°21'2 4.2
2018-Jun-12 00:00N 37°46' W 122°23'0 0.0
2018-Jun-11 21:55N 37°46' W 122°23'0 0.0
2018-Jun-11 19:42N 37°46' W 122°23'0 2.2
2018-Jun-11 19:30N 37°47' W 122°23'  

Dump ship's entire track history